Time;durP1;ratioP1;P1;durP2;ratioP2;P2;SDS_P1;SDS_P2;PMS_P1;PMS_P2;Temp;Humidity;BMP_temperature;BMP_pressure;BME280_temperature;BME280_humidity;BME280_pressure;Samples;Min_cycle;Max_cycle;Signal;HPM_P1;HPM_P2
2022/08/26 00:01:18;;;;;;;0.60;0.60;;;;;;;;;;1859782;76;26268;-53
2022/08/26 00:03:46;;;;;;;0.70;0.70;;;;;;;;;;1866310;76;26710;-53
2022/08/26 00:06:14;;;;;;;0.82;0.82;;;;;;;;;;1868064;76;26309;-54
2022/08/26 00:08:42;;;;;;;0.80;0.80;;;;;;;;;;1870082;76;26739;-55
2022/08/26 00:11:09;;;;;;;0.60;0.60;;;;;;;;;;1865022;76;26331;-56
2022/08/26 00:13:37;;;;;;;0.80;0.80;;;;;;;;;;1867858;76;26293;-54
2022/08/26 00:16:06;;;;;;;0.70;0.70;;;;;;;;;;1855834;76;26309;-53
2022/08/26 00:18:33;;;;;;;0.80;0.80;;;;;;;;;;1854993;76;26327;-55
2022/08/26 00:21:00;;;;;;;0.62;0.62;;;;;;;;;;1860024;76;26689;-53
2022/08/26 00:23:28;;;;;;;0.72;0.72;;;;;;;;;;1848200;76;26250;-53
2022/08/26 00:25:55;;;;;;;0.90;0.90;;;;;;;;;;1869360;75;26281;-54
2022/08/26 00:28:24;;;;;;;0.60;0.60;;;;;;;;;;1864290;76;26307;-56
2022/08/26 00:30:51;;;;;;;0.72;0.72;;;;;;;;;;1873651;76;26227;-54
2022/08/26 00:33:19;;;;;;;0.80;0.80;;;;;;;;;;1862456;76;26747;-54
2022/08/26 00:35:47;;;;;;;0.70;0.70;;;;;;;;;;1871457;76;26323;-55
2022/08/26 00:38:14;;;;;;;0.80;0.80;;;;;;;;;;1875988;76;26284;-55
2022/08/26 00:40:45;;;;;;;0.80;0.80;;;;;;;;;;1876103;76;26303;-55
2022/08/26 00:43:14;;;;;;;0.70;0.70;;;;;;;;;;1871714;76;26406;-53
2022/08/26 00:45:43;;;;;;;0.70;0.70;;;;;;;;;;1861002;76;26346;-54
2022/08/26 00:48:11;;;;;;;0.70;0.70;;;;;;;;;;1861940;75;26290;-53
2022/08/26 00:50:40;;;;;;;0.80;0.80;;;;;;;;;;1860669;76;26269;-53
2022/08/26 00:53:21;;;;;;;0.70;0.70;;;;;;;;;;1875572;76;26253;-53
2022/08/26 00:55:52;;;;;;;0.72;0.72;;;;;;;;;;1860028;76;26315;-53
2022/08/26 00:58:20;;;;;;;0.80;0.80;;;;;;;;;;1856684;75;26645;-54
2022/08/26 01:00:48;;;;;;;0.80;0.80;;;;;;;;;;1865845;76;26789;-53
2022/08/26 01:03:16;;;;;;;0.90;0.90;;;;;;;;;;1871895;75;26352;-55
2022/08/26 01:05:44;;;;;;;0.70;0.70;;;;;;;;;;1878719;76;26249;-52
2022/08/26 01:08:11;;;;;;;0.78;0.78;;;;;;;;;;1865306;76;26245;-51
2022/08/26 01:10:39;;;;;;;0.62;0.62;;;;;;;;;;1872254;76;26253;-51
2022/08/26 01:13:09;;;;;;;0.80;0.80;;;;;;;;;;1879070;76;26260;-54
2022/08/26 01:15:37;;;;;;;0.80;0.80;;;;;;;;;;1866643;76;26274;-54
2022/08/26 01:18:05;;;;;;;0.70;0.70;;;;;;;;;;1877331;75;26221;-53
2022/08/26 01:20:51;;;;;;;0.80;0.80;;;;;;;;;;1874701;75;26309;-51
2022/08/26 01:23:19;;;;;;;0.90;0.90;;;;;;;;;;1882182;75;26194;-54
2022/08/26 01:25:47;;;;;;;0.70;0.70;;;;;;;;;;1898389;75;26252;-53
2022/08/26 01:28:16;;;;;;;0.80;0.80;;;;;;;;;;1872848;76;26276;-54
2022/08/26 01:30:45;;;;;;;0.75;0.75;;;;;;;;;;1859114;76;26427;-54
2022/08/26 01:33:14;;;;;;;0.90;0.90;;;;;;;;;;1873418;76;26261;-50
2022/08/26 01:35:42;;;;;;;0.90;0.90;;;;;;;;;;1873152;76;26268;-53
2022/08/26 01:38:09;;;;;;;0.72;0.72;;;;;;;;;;1870817;76;26348;-53
2022/08/26 01:40:38;;;;;;;0.80;0.80;;;;;;;;;;1870870;76;26241;-53
2022/08/26 01:43:07;;;;;;;0.90;0.90;;;;;;;;;;1870888;76;26275;-50
2022/08/26 01:45:35;;;;;;;0.88;0.88;;;;;;;;;;1854835;76;26924;-55
2022/08/26 01:48:04;;;;;;;1.00;1.00;;;;;;;;;;1859204;76;26325;-54
2022/08/26 01:50:32;;;;;;;1.75;0.80;;;;;;;;;;1867401;76;26269;-56
2022/08/26 01:53:01;;;;;;;0.90;0.90;;;;;;;;;;1849976;76;26789;-54
2022/08/26 01:55:29;;;;;;;1.00;1.00;;;;;;;;;;1857486;76;26743;-53
2022/08/26 01:57:57;;;;;;;0.70;0.70;;;;;;;;;;1854432;76;26348;-55
2022/08/26 02:00:25;;;;;;;0.80;0.80;;;;;;;;;;1873309;76;26724;-56
2022/08/26 02:05:40;;;;;;;0.80;0.80;;;;;;;;;;1869789;76;26286;-53
2022/08/26 02:08:07;;;;;;;0.85;0.85;;;;;;;;;;1869132;76;26194;-54
2022/08/26 02:10:35;;;;;;;0.90;0.90;;;;;;;;;;1862798;76;26327;-54
2022/08/26 02:13:02;;;;;;;1.07;1.00;;;;;;;;;;1877717;76;26245;-53
2022/08/26 02:15:29;;;;;;;1.00;1.00;;;;;;;;;;1876915;76;26759;-54
2022/08/26 02:17:57;;;;;;;1.00;1.00;;;;;;;;;;1865493;76;26288;-52
2022/08/26 02:20:24;;;;;;;0.80;0.80;;;;;;;;;;1871633;76;26264;-53
2022/08/26 02:22:52;;;;;;;0.90;0.90;;;;;;;;;;1867385;76;26278;-51
2022/08/26 02:25:21;;;;;;;0.78;0.78;;;;;;;;;;1878476;76;26315;-54
2022/08/26 02:27:48;;;;;;;0.80;0.80;;;;;;;;;;1863286;76;26324;-54
2022/08/26 02:30:20;;;;;;;0.95;0.90;;;;;;;;;;1839663;76;26333;-55
2022/08/26 02:32:48;;;;;;;0.78;0.78;;;;;;;;;;1836724;76;26240;-53
2022/08/26 02:35:17;;;;;;;0.82;0.82;;;;;;;;;;1853858;76;26290;-54
2022/08/26 02:37:44;;;;;;;0.90;0.90;;;;;;;;;;1824050;76;26282;-53
2022/08/26 02:40:13;;;;;;;0.80;0.80;;;;;;;;;;1818979;77;26274;-53
2022/08/26 02:42:40;;;;;;;0.90;0.90;;;;;;;;;;1842150;76;26817;-53
2022/08/26 02:45:09;;;;;;;0.80;0.80;;;;;;;;;;1841248;76;26284;-54
2022/08/26 02:47:37;;;;;;;0.88;0.88;;;;;;;;;;1842187;76;26278;-52
2022/08/26 02:50:05;;;;;;;0.82;0.82;;;;;;;;;;1829341;76;26749;-53
2022/08/26 02:52:33;;;;;;;0.90;0.90;;;;;;;;;;1844923;76;26798;-53
2022/08/26 02:55:00;;;;;;;0.70;0.70;;;;;;;;;;1832871;76;26722;-55
2022/08/26 02:57:29;;;;;;;0.90;0.90;;;;;;;;;;1838139;76;26245;-54
2022/08/26 02:59:57;;;;;;;0.90;0.90;;;;;;;;;;1826281;77;26285;-55
2022/08/26 03:02:24;;;;;;;0.80;0.80;;;;;;;;;;1842976;76;26201;-54
2022/08/26 03:04:51;;;;;;;0.98;0.98;;;;;;;;;;1830892;76;26270;-54
2022/08/26 03:07:19;;;;;;;0.85;0.85;;;;;;;;;;1829562;76;26290;-56
2022/08/26 03:09:46;;;;;;;0.80;0.80;;;;;;;;;;1841638;76;26390;-56
2022/08/26 03:12:13;;;;;;;0.90;0.90;;;;;;;;;;1844943;76;26279;-54
2022/08/26 03:14:41;;;;;;;0.78;0.78;;;;;;;;;;1822162;77;26282;-52
2022/08/26 03:17:08;;;;;;;0.80;0.80;;;;;;;;;;1848627;76;26724;-54
2022/08/26 03:19:35;;;;;;;0.88;0.88;;;;;;;;;;1847742;77;26260;-53
2022/08/26 03:22:03;;;;;;;0.82;0.82;;;;;;;;;;1847150;76;26269;-53
2022/08/26 03:24:31;;;;;;;0.90;0.90;;;;;;;;;;1846138;77;26752;-53
2022/08/26 03:26:59;;;;;;;1.82;0.88;;;;;;;;;;1846534;76;26271;-53
2022/08/26 03:32:11;;;;;;;1.52;0.80;;;;;;;;;;1860345;76;26385;-52
2022/08/26 03:34:39;;;;;;;0.90;0.90;;;;;;;;;;1870394;76;26249;-54
2022/08/26 03:37:06;;;;;;;0.85;0.85;;;;;;;;;;1855820;76;26859;-53
2022/08/26 03:39:34;;;;;;;0.70;0.70;;;;;;;;;;1860960;76;26773;-52
2022/08/26 03:42:01;;;;;;;0.90;0.90;;;;;;;;;;1847992;76;26268;-53
2022/08/26 03:44:28;;;;;;;0.82;0.82;;;;;;;;;;1870699;76;26400;-53
2022/08/26 03:46:56;;;;;;;0.70;0.70;;;;;;;;;;1860976;76;26392;-52
2022/08/26 03:49:23;;;;;;;0.80;0.80;;;;;;;;;;1864153;76;26288;-51
2022/08/26 03:51:51;;;;;;;0.80;0.80;;;;;;;;;;1866938;76;26202;-53
2022/08/26 03:54:18;;;;;;;0.90;0.90;;;;;;;;;;1850022;76;26319;-54
2022/08/26 03:56:46;;;;;;;0.80;0.80;;;;;;;;;;1850420;76;26319;-55
2022/08/26 03:59:13;;;;;;;0.82;0.82;;;;;;;;;;1870736;76;26355;-55
2022/08/26 04:01:40;;;;;;;1.00;0.90;;;;;;;;;;1874015;76;26248;-53
2022/08/26 04:04:08;;;;;;;0.80;0.80;;;;;;;;;;1858952;76;26312;-55
2022/08/26 04:06:37;;;;;;;0.80;0.80;;;;;;;;;;1855873;76;26304;-53
2022/08/26 04:09:06;;;;;;;0.70;0.70;;;;;;;;;;1844720;76;26728;-52
2022/08/26 04:11:34;;;;;;;0.70;0.70;;;;;;;;;;1856733;76;26304;-53
2022/08/26 04:14:03;;;;;;;0.70;0.70;;;;;;;;;;1825279;76;26735;-53
2022/08/26 04:16:31;;;;;;;0.82;0.80;;;;;;;;;;1840998;76;26292;-54
2022/08/26 04:18:59;;;;;;;0.75;0.75;;;;;;;;;;1862003;76;26250;-54
2022/08/26 04:21:27;;;;;;;0.70;0.70;;;;;;;;;;1862267;76;26272;-55
2022/08/26 04:23:54;;;;;;;0.60;0.60;;;;;;;;;;1854149;76;26717;-53
2022/08/26 04:26:22;;;;;;;0.78;0.75;;;;;;;;;;1840527;76;26276;-54
2022/08/26 04:28:51;;;;;;;1.12;0.70;;;;;;;;;;1868088;76;26293;-55
2022/08/26 04:31:18;;;;;;;0.80;0.80;;;;;;;;;;1863727;75;26245;-53
2022/08/26 04:33:47;;;;;;;0.80;0.80;;;;;;;;;;1871361;75;26319;-54
2022/08/26 04:36:14;;;;;;;0.75;0.75;;;;;;;;;;1878021;76;26319;-54
2022/08/26 04:38:41;;;;;;;0.78;0.78;;;;;;;;;;1872515;75;26520;-54
2022/08/26 04:41:10;;;;;;;0.80;0.80;;;;;;;;;;1873552;75;26277;-55
2022/08/26 04:43:37;;;;;;;0.80;0.80;;;;;;;;;;1859264;75;25819;-55
2022/08/26 04:46:05;;;;;;;0.80;0.80;;;;;;;;;;1866315;76;26293;-54
2022/08/26 04:48:34;;;;;;;1.25;0.82;;;;;;;;;;1861981;75;26253;-55
2022/08/26 04:51:01;;;;;;;0.70;0.70;;;;;;;;;;1859083;76;26759;-55
2022/08/26 04:53:28;;;;;;;0.70;0.70;;;;;;;;;;1871148;75;26249;-53
2022/08/26 04:55:56;;;;;;;0.70;0.70;;;;;;;;;;1891821;75;26305;-54
2022/08/26 04:58:24;;;;;;;0.80;0.80;;;;;;;;;;1869281;76;26272;-55
2022/08/26 05:00:52;;;;;;;0.62;0.62;;;;;;;;;;1874768;76;26210;-54
2022/08/26 05:03:20;;;;;;;0.80;0.80;;;;;;;;;;1864995;76;26698;-54
2022/08/26 05:05:52;;;;;;;0.80;0.80;;;;;;;;;;1847689;76;26242;-54
2022/08/26 05:08:18;;;;;;;0.70;0.70;;;;;;;;;;1854199;76;26269;-54
2022/08/26 05:10:49;;;;;;;0.75;0.60;;;;;;;;;;1848319;76;26359;-55
2022/08/26 05:13:18;;;;;;;0.72;0.72;;;;;;;;;;1851796;76;26350;-55
2022/08/26 05:15:45;;;;;;;0.70;0.70;;;;;;;;;;1847818;76;26884;-55
2022/08/26 05:18:15;;;;;;;1.87;0.72;;;;;;;;;;1845455;76;26264;-54
2022/08/26 05:20:43;;;;;;;1.00;0.70;;;;;;;;;;1850193;76;26268;-53
2022/08/26 05:23:11;;;;;;;1.35;0.60;;;;;;;;;;1852684;76;26355;-54
2022/08/26 05:25:40;;;;;;;0.82;0.80;;;;;;;;;;1851129;75;26296;-56
2022/08/26 05:28:09;;;;;;;0.70;0.70;;;;;;;;;;1847491;76;26280;-53
2022/08/26 05:30:36;;;;;;;0.60;0.60;;;;;;;;;;1858750;75;26395;-54
2022/08/26 05:33:04;;;;;;;0.70;0.70;;;;;;;;;;1865439;75;26281;-54
2022/08/26 05:35:33;;;;;;;1.40;0.70;;;;;;;;;;1851470;75;26339;-54
2022/08/26 05:38:01;;;;;;;0.70;0.70;;;;;;;;;;1850869;75;26715;-53
2022/08/26 05:40:29;;;;;;;0.70;0.70;;;;;;;;;;1851890;76;26256;-54
2022/08/26 05:42:59;;;;;;;0.80;0.80;;;;;;;;;;1846798;75;26294;-53
2022/08/26 05:45:26;;;;;;;0.80;0.80;;;;;;;;;;1860232;75;26598;-54
2022/08/26 05:47:54;;;;;;;0.65;0.65;;;;;;;;;;1852246;76;26291;-53
2022/08/26 05:50:21;;;;;;;0.70;0.70;;;;;;;;;;1846032;75;26806;-55
2022/08/26 05:52:49;;;;;;;0.82;0.82;;;;;;;;;;1850049;76;26335;-53
2022/08/26 05:55:17;;;;;;;0.65;0.65;;;;;;;;;;1852920;75;27488;-54
2022/08/26 05:57:44;;;;;;;0.80;0.80;;;;;;;;;;1859231;75;26292;-54
2022/08/26 06:00:14;;;;;;;0.70;0.70;;;;;;;;;;1862131;76;26257;-55
2022/08/26 06:02:41;;;;;;;0.80;0.80;;;;;;;;;;1861220;76;26346;-54
2022/08/26 06:05:08;;;;;;;0.70;0.70;;;;;;;;;;1872037;76;26874;-55
2022/08/26 06:10:21;;;;;;;0.70;0.70;;;;;;;;;;1861355;75;26334;-55
2022/08/26 06:12:49;;;;;;;0.62;0.62;;;;;;;;;;1868410;75;26221;-54
2022/08/26 06:15:16;;;;;;;0.80;0.80;;;;;;;;;;1860124;76;26381;-53
2022/08/26 06:17:43;;;;;;;1.85;0.70;;;;;;;;;;1861976;75;26568;-53
2022/08/26 06:20:11;;;;;;;0.78;0.78;;;;;;;;;;1856960;76;26260;-54
2022/08/26 06:25:38;;;;;;;0.80;0.80;;;;;;;;;;1872938;76;26580;-54
2022/08/26 06:28:06;;;;;;;0.80;0.80;;;;;;;;;;1870338;76;26756;-54
2022/08/26 06:30:35;;;;;;;0.80;0.80;;;;;;;;;;1871446;76;26343;-53
2022/08/26 06:33:02;;;;;;;0.78;0.78;;;;;;;;;;1864821;76;26331;-53
2022/08/26 06:35:30;;;;;;;12.55;1.45;;;;;;;;;;1858318;76;26627;-48
2022/08/26 06:37:57;;;;;;;5.17;1.40;;;;;;;;;;1861584;75;26245;-49
2022/08/26 06:40:25;;;;;;;1.77;1.50;;;;;;;;;;1860585;76;26370;-50
2022/08/26 06:42:52;;;;;;;2.12;1.40;;;;;;;;;;1861637;75;26354;-53
2022/08/26 06:45:20;;;;;;;2.67;1.52;;;;;;;;;;1864090;76;26249;-52
2022/08/26 06:47:47;;;;;;;1.60;1.50;;;;;;;;;;1863739;75;26331;-52
2022/08/26 06:50:14;;;;;;;2.60;1.42;;;;;;;;;;1862084;75;26288;-52
2022/08/26 06:52:42;;;;;;;1.40;1.40;;;;;;;;;;1865199;75;26548;-51
2022/08/26 06:55:09;;;;;;;3.85;1.50;;;;;;;;;;1860625;76;26323;-49
2022/08/26 06:57:37;;;;;;;1.50;1.50;;;;;;;;;;1864024;76;26316;-51
2022/08/26 07:00:09;;;;;;;1.67;1.50;;;;;;;;;;1869116;76;26272;-50
2022/08/26 07:02:37;;;;;;;1.85;1.60;;;;;;;;;;1866643;76;26374;-51
2022/08/26 07:05:05;;;;;;;3.08;1.37;;;;;;;;;;1874841;76;26700;-51
2022/08/26 07:07:32;;;;;;;1.85;1.37;;;;;;;;;;1877127;76;26249;-50
2022/08/26 07:09:59;;;;;;;1.90;1.40;;;;;;;;;;1859007;76;26596;-51
2022/08/26 07:12:27;;;;;;;1.40;1.30;;;;;;;;;;1879082;75;26796;-50
2022/08/26 07:14:54;;;;;;;1.47;1.37;;;;;;;;;;1867949;76;26326;-51
2022/08/26 07:17:21;;;;;;;1.30;1.30;;;;;;;;;;1867279;75;27370;-56
2022/08/26 07:19:49;;;;;;;1.60;1.50;;;;;;;;;;1865150;76;26316;-52
2022/08/26 07:22:16;;;;;;;1.52;1.52;;;;;;;;;;1863597;76;26331;-51
2022/08/26 07:24:44;;;;;;;1.47;1.47;;;;;;;;;;1865870;76;26368;-49
2022/08/26 07:27:13;;;;;;;1.45;1.45;;;;;;;;;;1859794;76;26672;-54
2022/08/26 07:29:45;;;;;;;2.33;1.70;;;;;;;;;;1864281;75;27154;-53
2022/08/26 07:32:12;;;;;;;3.42;1.30;;;;;;;;;;1858469;75;26376;-51
2022/08/26 07:34:39;;;;;;;3.12;1.37;;;;;;;;;;1863700;75;26312;-50
2022/08/26 07:37:07;;;;;;;1.35;1.35;;;;;;;;;;1864773;75;26269;-54
2022/08/26 07:39:34;;;;;;;2.35;1.40;;;;;;;;;;1862060;75;27236;-50
2022/08/26 07:42:02;;;;;;;1.30;1.30;;;;;;;;;;1862859;75;26273;-50
2022/08/26 07:44:29;;;;;;;1.30;1.30;;;;;;;;;;1865687;75;26751;-51
2022/08/26 07:46:57;;;;;;;1.50;1.40;;;;;;;;;;1860448;75;26257;-50
2022/08/26 07:49:25;;;;;;;1.40;1.40;;;;;;;;;;1859107;76;26938;-56
2022/08/26 07:51:53;;;;;;;1.37;1.30;;;;;;;;;;1860958;76;26277;-50
2022/08/26 07:54:20;;;;;;;1.72;1.50;;;;;;;;;;1862963;75;26327;-54
2022/08/26 07:56:48;;;;;;;1.50;1.40;;;;;;;;;;1862340;75;26245;-52
2022/08/26 07:59:16;;;;;;;2.67;1.47;;;;;;;;;;1862383;75;26276;-50
2022/08/26 08:01:44;;;;;;;2.67;1.40;;;;;;;;;;1865001;75;26299;-50
2022/08/26 08:04:13;;;;;;;1.57;1.42;;;;;;;;;;1866275;75;26367;-50
2022/08/26 08:06:40;;;;;;;1.57;1.47;;;;;;;;;;1824633;78;26280;-51
2022/08/26 08:09:08;;;;;;;1.57;1.50;;;;;;;;;;1793402;78;26884;-55
2022/08/26 08:11:35;;;;;;;1.50;1.50;;;;;;;;;;1805195;78;26345;-58
2022/08/26 08:14:03;;;;;;;2.22;1.37;;;;;;;;;;1792838;79;27091;-50
2022/08/26 08:16:30;;;;;;;2.62;1.30;;;;;;;;;;1796774;78;26315;-51
2022/08/26 08:18:57;;;;;;;1.22;1.22;;;;;;;;;;1825983;78;26379;-51
2022/08/26 08:21:25;;;;;;;1.30;1.30;;;;;;;;;;1825113;78;26855;-50
2022/08/26 08:23:54;;;;;;;1.40;1.30;;;;;;;;;;1825834;78;26269;-51
2022/08/26 08:26:22;;;;;;;1.50;1.40;;;;;;;;;;1826493;78;26286;-53
2022/08/26 08:28:50;;;;;;;1.30;1.30;;;;;;;;;;1825511;78;26284;-48
2022/08/26 08:31:19;;;;;;;1.57;1.30;;;;;;;;;;1795871;79;26252;-49
2022/08/26 08:33:46;;;;;;;1.30;1.30;;;;;;;;;;1797775;78;26366;-51
2022/08/26 08:36:15;;;;;;;1.12;1.12;;;;;;;;;;1827922;78;26779;-49
2022/08/26 08:38:43;;;;;;;1.30;1.30;;;;;;;;;;1826620;78;26325;-50
2022/08/26 08:41:29;;;;;;;1.30;1.30;;;;;;;;;;1828152;76;26353;-54
2022/08/26 08:43:57;;;;;;;1.42;1.42;;;;;;;;;;1824934;78;26269;-50
2022/08/26 08:46:24;;;;;;;1.30;1.30;;;;;;;;;;1823626;78;26308;-49
2022/08/26 08:48:55;;;;;;;1.40;1.40;;;;;;;;;;1825464;78;26935;-50
2022/08/26 08:51:42;;;;;;;1.20;1.20;;;;;;;;;;1824589;78;26335;-49
2022/08/26 08:54:10;;;;;;;1.52;1.42;;;;;;;;;;1805362;78;26306;-46
2022/08/26 08:56:38;;;;;;;1.40;1.40;;;;;;;;;;1799261;78;26293;-50
2022/08/26 08:59:07;;;;;;;1.30;1.30;;;;;;;;;;1825994;78;26428;-47
2022/08/26 09:01:54;;;;;;;1.65;1.60;;;;;;;;;;1829275;78;26295;-55
2022/08/26 09:04:40;;;;;;;1.40;1.30;;;;;;;;;;1821261;78;26865;-54
2022/08/26 09:07:09;;;;;;;1.37;1.27;;;;;;;;;;1828800;78;26369;-51
2022/08/26 09:09:41;;;;;;;1.30;1.30;;;;;;;;;;1829275;78;26937;-52
2022/08/26 09:12:09;;;;;;;1.30;1.30;;;;;;;;;;1826289;78;26309;-50
2022/08/26 09:14:37;;;;;;;1.40;1.40;;;;;;;;;;1830116;77;26264;-50
2022/08/26 09:17:06;;;;;;;1.30;1.30;;;;;;;;;;1828825;78;26920;-51
2022/08/26 09:19:35;;;;;;;1.30;1.30;;;;;;;;;;1824030;78;27441;-47
2022/08/26 09:22:02;;;;;;;1.30;1.30;;;;;;;;;;1797561;79;27232;-49
2022/08/26 09:24:30;;;;;;;1.20;1.20;;;;;;;;;;1804297;78;26745;-50
2022/08/26 09:26:58;;;;;;;1.62;1.40;;;;;;;;;;1829365;77;26300;-50
2022/08/26 09:29:29;;;;;;;1.32;1.32;;;;;;;;;;1799833;78;26396;-51
2022/08/26 09:32:20;;;;;;;1.32;1.32;;;;;;;;;;1826479;77;26296;-48
2022/08/26 09:35:01;;;;;;;1.45;1.32;;;;;;;;;;1828665;77;26917;-53
2022/08/26 09:37:38;;;;;;;1.50;1.45;;;;;;;;;;1864653;75;26351;-49
2022/08/26 09:40:19;;;;;;;1.30;1.30;;;;;;;;;;1862036;75;26349;-46
2022/08/26 09:42:46;;;;;;;1.50;1.50;;;;;;;;;;1863299;76;26318;-48
2022/08/26 09:45:14;;;;;;;1.27;1.27;;;;;;;;;;1862519;75;26261;-53
2022/08/26 09:47:49;;;;;;;1.35;1.30;;;;;;;;;;1863533;76;26281;-51
2022/08/26 09:50:27;;;;;;;1.30;1.30;;;;;;;;;;1863720;76;26355;-53
2022/08/26 09:53:08;;;;;;;1.35;1.35;;;;;;;;;;1861143;75;27162;-51
2022/08/26 09:55:36;;;;;;;1.40;1.30;;;;;;;;;;1862204;76;26304;-50
2022/08/26 09:58:03;;;;;;;1.17;1.17;;;;;;;;;;1863934;76;26387;-54
2022/08/26 10:00:38;;;;;;;1.30;1.30;;;;;;;;;;1863014;76;26783;-49
2022/08/26 10:03:07;;;;;;;1.37;1.37;;;;;;;;;;1863365;76;26273;-50
2022/08/26 10:05:36;;;;;;;1.20;1.20;;;;;;;;;;1863900;76;26928;-50
2022/08/26 10:08:22;;;;;;;1.45;1.45;;;;;;;;;;1862598;76;26845;-49
2022/08/26 10:10:50;;;;;;;1.30;1.30;;;;;;;;;;1866706;76;26254;-50
2022/08/26 10:13:18;;;;;;;1.20;1.20;;;;;;;;;;1871956;76;27567;-49
2022/08/26 10:15:47;;;;;;;1.27;1.27;;;;;;;;;;1875002;75;26693;-51
2022/08/26 10:18:16;;;;;;;1.40;1.40;;;;;;;;;;1841279;75;27106;-53
2022/08/26 10:20:48;;;;;;;1.30;1.30;;;;;;;;;;1872036;75;26334;-55
2022/08/26 10:23:17;;;;;;;1.20;1.20;;;;;;;;;;1875293;76;26258;-48
2022/08/26 10:25:49;;;;;;;1.10;1.10;;;;;;;;;;1862744;76;26398;-49
2022/08/26 10:28:26;;;;;;;1.32;1.32;;;;;;;;;;1867218;75;26386;-48
2022/08/26 10:30:58;;;;;;;1.45;1.40;;;;;;;;;;1863538;75;26309;-50
2022/08/26 10:33:25;;;;;;;1.67;1.50;;;;;;;;;;1873491;76;26286;-46
2022/08/26 10:35:57;;;;;;;1.30;1.30;;;;;;;;;;1873352;75;27322;-51
2022/08/26 10:38:27;;;;;;;3.90;1.37;;;;;;;;;;1876685;75;26331;-58
2022/08/26 10:40:56;;;;;;;1.30;1.30;;;;;;;;;;1867754;76;26334;-51
2022/08/26 10:43:25;;;;;;;5.35;1.65;;;;;;;;;;1875328;76;26218;-55
2022/08/26 10:45:56;;;;;;;2.10;1.52;;;;;;;;;;1873651;76;26290;-50
2022/08/26 10:48:25;;;;;;;7.90;1.70;;;;;;;;;;1880879;75;26313;-50
2022/08/26 10:50:54;;;;;;;2.92;1.65;;;;;;;;;;1878949;75;26414;-53
2022/08/26 10:53:35;;;;;;;2.42;1.30;;;;;;;;;;1870336;75;26254;-53
2022/08/26 10:56:07;;;;;;;2.15;1.60;;;;;;;;;;1880037;75;26272;-53
2022/08/26 10:58:39;;;;;;;3.15;1.40;;;;;;;;;;1870791;75;26281;-53
2022/08/26 11:03:59;;;;;;;6.67;1.40;;;;;;;;;;1868541;75;26958;-54
2022/08/26 11:06:27;;;;;;;1.30;1.20;;;;;;;;;;1885624;75;26323;-52
2022/08/26 11:08:56;;;;;;;2.67;1.30;;;;;;;;;;1867464;75;26913;-52
2022/08/26 11:11:30;;;;;;;2.58;1.35;;;;;;;;;;1878411;75;26250;-54
2022/08/26 11:14:00;;;;;;;2.10;1.30;;;;;;;;;;1860400;76;26279;-53
2022/08/26 11:16:46;;;;;;;2.15;1.37;;;;;;;;;;1862487;76;26229;-54
2022/08/26 11:19:33;;;;;;;1.20;1.20;;;;;;;;;;1876333;76;27574;-55
2022/08/26 11:22:05;;;;;;;4.20;1.40;;;;;;;;;;1873219;76;26748;-50
2022/08/26 11:24:43;;;;;;;1.25;1.20;;;;;;;;;;1861032;76;26359;-53
2022/08/26 11:27:11;;;;;;;10.85;5.55;;;;;;;;;;1857087;76;26713;-51
2022/08/26 11:29:57;;;;;;;9.20;7.00;;;;;;;;;;1870715;75;26680;-50
2022/08/26 11:32:36;;;;;;;6.70;5.97;;;;;;;;;;1875726;75;26773;-49
2022/08/26 11:35:06;;;;;;;7.03;6.10;;;;;;;;;;1836147;76;26323;-50
2022/08/26 11:37:34;;;;;;;7.17;6.47;;;;;;;;;;1816441;77;26256;-51
2022/08/26 11:40:03;;;;;;;7.55;6.75;;;;;;;;;;1817975;77;26314;-54
2022/08/26 11:42:33;;;;;;;6.70;6.17;;;;;;;;;;1823219;77;26279;-53
2022/08/26 11:45:02;;;;;;;6.92;6.28;;;;;;;;;;1860301;76;26667;-50
2022/08/26 11:47:30;;;;;;;6.47;5.87;;;;;;;;;;1840880;77;26268;-52
2022/08/26 11:50:05;;;;;;;6.62;6.03;;;;;;;;;;1830365;76;26339;-52
2022/08/26 11:52:32;;;;;;;6.08;5.58;;;;;;;;;;1817946;77;26839;-54
2022/08/26 11:55:01;;;;;;;5.45;5.05;;;;;;;;;;1836044;77;26794;-52
2022/08/26 11:57:30;;;;;;;5.70;5.20;;;;;;;;;;1827639;76;26348;-51
2022/08/26 11:59:58;;;;;;;5.08;4.65;;;;;;;;;;1835295;77;26284;-49
2022/08/26 12:02:26;;;;;;;5.30;4.90;;;;;;;;;;1836840;77;26268;-55
2022/08/26 12:04:54;;;;;;;5.03;4.58;;;;;;;;;;1844462;77;26288;-49
2022/08/26 12:07:23;;;;;;;5.15;4.75;;;;;;;;;;1833782;77;26252;-52
2022/08/26 12:09:55;;;;;;;4.40;4.10;;;;;;;;;;1845862;77;26731;-50
2022/08/26 12:12:24;;;;;;;5.03;4.30;;;;;;;;;;1826614;77;26720;-53
2022/08/26 12:14:52;;;;;;;5.00;4.60;;;;;;;;;;1837126;77;26648;-54
2022/08/26 12:17:21;;;;;;;4.45;4.03;;;;;;;;;;1829449;77;26710;-52
2022/08/26 12:19:48;;;;;;;3.95;3.75;;;;;;;;;;1844017;77;27592;-54
2022/08/26 12:22:17;;;;;;;4.08;3.80;;;;;;;;;;1836685;77;26310;-55
2022/08/26 12:24:46;;;;;;;3.47;3.25;;;;;;;;;;1839900;77;26296;-49
2022/08/26 12:27:15;;;;;;;3.62;3.42;;;;;;;;;;1843736;77;26272;-53
2022/08/26 12:29:42;;;;;;;3.33;3.12;;;;;;;;;;1842248;76;26308;-50
2022/08/26 12:32:12;;;;;;;3.22;3.02;;;;;;;;;;1836648;75;26336;-51
2022/08/26 12:34:43;;;;;;;3.30;3.10;;;;;;;;;;1865995;75;26733;-51
2022/08/26 12:37:13;;;;;;;2.98;2.87;;;;;;;;;;1878010;75;26260;-50
2022/08/26 12:39:43;;;;;;;3.10;2.95;;;;;;;;;;1870320;76;27098;-53
2022/08/26 12:42:15;;;;;;;2.72;2.62;;;;;;;;;;1868647;75;26324;-46
2022/08/26 12:44:49;;;;;;;2.80;2.70;;;;;;;;;;1874823;75;26285;-46
2022/08/26 12:47:27;;;;;;;3.10;2.90;;;;;;;;;;1876270;75;26882;-55
2022/08/26 12:50:02;;;;;;;3.02;2.92;;;;;;;;;;1883207;75;26290;-57
2022/08/26 12:52:31;;;;;;;2.98;2.75;;;;;;;;;;1876838;75;26287;-50
2022/08/26 12:54:59;;;;;;;2.85;2.65;;;;;;;;;;1876320;75;26269;-49
2022/08/26 12:57:28;;;;;;;2.70;2.60;;;;;;;;;;1875122;75;26314;-55
2022/08/26 13:00:13;;;;;;;2.52;2.40;;;;;;;;;;1880583;75;26268;-54
2022/08/26 13:02:41;;;;;;;2.52;2.42;;;;;;;;;;1880299;75;26551;-50
2022/08/26 13:05:09;;;;;;;2.50;2.40;;;;;;;;;;1883907;75;26336;-54
2022/08/26 13:07:37;;;;;;;2.33;2.22;;;;;;;;;;1872215;75;26517;-51
2022/08/26 13:10:04;;;;;;;8.63;2.20;;;;;;;;;;1881954;75;26393;-51
2022/08/26 13:12:34;;;;;;;2.25;2.15;;;;;;;;;;1888858;75;26250;-47
2022/08/26 13:15:01;;;;;;;2.20;2.10;;;;;;;;;;1871246;75;26244;-47
2022/08/26 13:17:29;;;;;;;4.80;2.12;;;;;;;;;;1869462;75;26319;-53
2022/08/26 13:19:57;;;;;;;1.92;1.82;;;;;;;;;;1876671;75;26248;-50
2022/08/26 13:22:25;;;;;;;1.87;1.85;;;;;;;;;;1872204;75;26347;-49
2022/08/26 13:24:54;;;;;;;2.20;2.10;;;;;;;;;;1876694;75;26799;-48
2022/08/26 13:27:22;;;;;;;2.55;1.70;;;;;;;;;;1875344;75;26258;-53
2022/08/26 13:29:50;;;;;;;1.75;1.75;;;;;;;;;;1884315;75;26547;-48
2022/08/26 13:32:19;;;;;;;1.85;1.85;;;;;;;;;;1877511;75;26700;-47
2022/08/26 13:34:47;;;;;;;2.05;1.87;;;;;;;;;;1876363;75;26347;-46
2022/08/26 13:37:14;;;;;;;2.85;1.87;;;;;;;;;;1874092;76;26264;-47
2022/08/26 13:39:42;;;;;;;1.60;1.60;;;;;;;;;;1866501;76;26257;-46
2022/08/26 13:42:09;;;;;;;1.60;1.60;;;;;;;;;;1865693;76;26245;-45
2022/08/26 13:44:37;;;;;;;1.60;1.50;;;;;;;;;;1865921;76;26305;-48
2022/08/26 13:47:05;;;;;;;2.08;1.70;;;;;;;;;;1868521;76;26274;-49
2022/08/26 13:49:32;;;;;;;1.70;1.60;;;;;;;;;;1868605;76;26280;-46
2022/08/26 13:52:02;;;;;;;1.50;1.50;;;;;;;;;;1859120;76;26693;-47
2022/08/26 13:54:29;;;;;;;1.80;1.70;;;;;;;;;;1879036;75;26358;-50
2022/08/26 13:56:57;;;;;;;1.40;1.40;;;;;;;;;;1878823;75;26257;-50
2022/08/26 13:59:25;;;;;;;1.50;1.50;;;;;;;;;;1879183;76;26281;-50
2022/08/26 14:01:52;;;;;;;1.40;1.40;;;;;;;;;;1872614;76;26309;-47
2022/08/26 14:04:19;;;;;;;1.70;1.60;;;;;;;;;;1869621;76;26324;-49
2022/08/26 14:06:47;;;;;;;1.40;1.40;;;;;;;;;;1863007;75;26257;-52
2022/08/26 14:09:14;;;;;;;1.40;1.40;;;;;;;;;;1876624;76;26304;-49
2022/08/26 14:11:41;;;;;;;1.60;1.60;;;;;;;;;;1874935;75;26276;-52
2022/08/26 14:14:08;;;;;;;2.05;1.30;;;;;;;;;;1854880;76;26827;-51
2022/08/26 14:16:37;;;;;;;1.30;1.30;;;;;;;;;;1856525;75;26806;-51
2022/08/26 14:19:06;;;;;;;1.60;1.50;;;;;;;;;;1853918;75;26316;-48
2022/08/26 14:21:35;;;;;;;1.42;1.42;;;;;;;;;;1851670;76;26270;-47
2022/08/26 14:24:03;;;;;;;1.50;1.50;;;;;;;;;;1869632;75;26273;-49
2022/08/26 14:26:30;;;;;;;1.40;1.40;;;;;;;;;;1861594;76;26268;-49
2022/08/26 14:28:58;;;;;;;1.52;1.40;;;;;;;;;;1855941;76;26244;-47
2022/08/26 14:31:27;;;;;;;1.30;1.30;;;;;;;;;;1862958;76;26827;-52
2022/08/26 14:33:56;;;;;;;1.40;1.40;;;;;;;;;;1858486;76;26320;-51
2022/08/26 14:36:34;;;;;;;1.42;1.42;;;;;;;;;;1853092;76;26217;-52
2022/08/26 14:39:02;;;;;;;1.30;1.30;;;;;;;;;;1865871;76;26320;-48
2022/08/26 14:41:30;;;;;;;1.10;1.10;;;;;;;;;;1855756;75;26278;-49
2022/08/26 14:43:59;;;;;;;1.30;1.30;;;;;;;;;;1855749;75;26280;-48
2022/08/26 14:46:27;;;;;;;1.27;1.27;;;;;;;;;;1860716;76;26279;-47
2022/08/26 14:48:56;;;;;;;1.25;1.25;;;;;;;;;;1863947;76;26657;-52
2022/08/26 14:51:24;;;;;;;1.20;1.20;;;;;;;;;;1856412;76;26290;-47
2022/08/26 14:56:38;;;;;;;1.57;1.40;;;;;;;;;;1862910;76;26918;-47
2022/08/26 14:59:06;;;;;;;1.37;1.30;;;;;;;;;;1854284;76;26720;-48
2022/08/26 15:01:33;;;;;;;1.27;1.27;;;;;;;;;;1858981;76;26347;-48
2022/08/26 15:04:01;;;;;;;1.32;1.32;;;;;;;;;;1866401;76;26326;-45
2022/08/26 15:06:30;;;;;;;1.30;1.30;;;;;;;;;;1855492;75;26225;-48
2022/08/26 15:08:58;;;;;;;1.37;1.37;;;;;;;;;;1862811;76;26281;-53
2022/08/26 15:11:25;;;;;;;1.30;1.30;;;;;;;;;;1857692;75;26279;-48